Time;durP1;ratioP1;P1;durP2;ratioP2;P2;SDS_P1;SDS_P2;PMS_P1;PMS_P2;Temp;Humidity;BMP_temperature;BMP_pressure;BME280_temperature;BME280_humidity;BME280_pressure;Samples;Min_cycle;Max_cycle;Signal;HPM_P1;HPM_P2
2021/04/25 00:00:40;;;;;;;49.53;25.65;;;;;;;1.98;74.06;94911.48;1756325;81;21172;-55
2021/04/25 00:03:08;;;;;;;43.42;22.93;;;;;;;1.91;74.06;94912.86;1756329;81;21167;-56
2021/04/25 00:05:36;;;;;;;36.15;20.55;;;;;;;1.87;74.30;94917.52;1756347;81;23469;-58
2021/04/25 00:08:05;;;;;;;33.75;20.68;;;;;;;1.85;74.35;94912.27;1756262;81;21125;-59
2021/04/25 00:10:33;;;;;;;35.00;21.23;;;;;;;1.82;74.38;94917.91;1756306;81;21105;-57
2021/04/25 00:13:00;;;;;;;40.20;23.22;;;;;;;1.83;74.56;94906.46;1756344;81;21132;-57
2021/04/25 00:15:28;;;;;;;42.20;21.17;;;;;;;1.84;74.44;94905.30;1756310;81;21204;-57
2021/04/25 00:17:57;;;;;;;41.08;21.60;;;;;;;1.84;74.45;94908.80;1756387;81;21221;-57
2021/04/25 00:20:25;;;;;;;43.38;22.58;;;;;;;1.90;74.51;94915.38;1756299;81;21101;-57
2021/04/25 00:22:53;;;;;;;51.00;25.20;;;;;;;1.96;74.35;94895.42;1756325;81;21510;-57
2021/04/25 00:25:21;;;;;;;47.10;25.27;;;;;;;2.04;74.00;94896.95;1756340;81;21144;-57
2021/04/25 00:27:49;;;;;;;51.73;25.32;;;;;;;2.09;73.79;94901.98;1756330;81;21168;-57
2021/04/25 00:30:20;;;;;;;40.83;22.07;;;;;;;2.12;73.50;94897.16;1756343;81;21396;-58
2021/04/25 00:32:48;;;;;;;29.70;18.90;;;;;;;2.13;73.13;94900.06;1756296;81;21209;-58
2021/04/25 00:35:19;;;;;;;26.80;18.32;;;;;;;2.03;72.92;94894.84;1756335;81;21097;-55
2021/04/25 00:37:46;;;;;;;37.63;18.42;;;;;;;1.94;72.90;94888.26;1756359;81;21061;-56
2021/04/25 00:40:17;;;;;;;22.55;16.70;;;;;;;1.84;72.89;94898.52;1756279;81;21081;-56
2021/04/25 00:42:45;;;;;;;23.95;16.02;;;;;;;1.75;73.22;94890.01;1756362;81;21207;-55
2021/04/25 00:45:16;;;;;;;27.00;16.50;;;;;;;1.72;73.22;94890.76;1756303;81;21088;-55
2021/04/25 00:47:48;;;;;;;24.55;16.02;;;;;;;1.63;73.27;94899.08;1756358;81;21093;-55
2021/04/25 00:50:27;;;;;;;30.45;20.62;;;;;;;1.56;73.64;94897.73;1744287;81;21502;-56
2021/04/25 00:52:56;;;;;;;31.82;18.80;;;;;;;1.56;74.22;94898.52;1719551;83;21059;-56
2021/04/25 00:55:26;;;;;;;34.98;19.92;;;;;;;1.60;74.23;94892.52;1749455;81;21216;-56
2021/04/25 00:57:54;;;;;;;32.93;18.42;;;;;;;1.62;74.36;94889.40;1757351;81;21098;-56
2021/04/25 01:00:22;;;;;;;35.58;19.92;;;;;;;1.61;74.35;94889.20;1765853;81;21142;-55
2021/04/25 01:02:50;;;;;;;29.82;19.25;;;;;;;1.56;74.41;94890.95;1765908;81;21130;-56
2021/04/25 01:05:20;;;;;;;35.45;19.12;;;;;;;1.54;74.56;94883.79;1765820;81;21178;-56
2021/04/25 01:07:49;;;;;;;31.42;19.30;;;;;;;1.51;74.62;94875.84;1766132;81;22235;-55
2021/04/25 01:10:19;;;;;;;33.05;19.00;;;;;;;1.53;74.73;94870.80;1766090;81;21491;-56
2021/04/25 01:12:47;;;;;;;40.98;19.32;;;;;;;1.57;74.65;94870.25;1766257;81;21511;-56
2021/04/25 01:15:16;;;;;;;36.23;20.72;;;;;;;1.55;74.69;94881.27;1766194;81;21103;-55
2021/04/25 01:17:47;;;;;;;35.73;22.07;;;;;;;1.54;74.95;94887.27;1766209;81;21070;-55
2021/04/25 01:20:19;;;;;;;22.25;16.17;;;;;;;1.56;75.04;94880.90;1766277;81;21217;-56
2021/04/25 01:22:46;;;;;;;18.23;14.15;;;;;;;1.58;74.75;94886.70;1766160;81;21108;-54
2021/04/25 01:25:18;;;;;;;21.62;13.85;;;;;;;1.58;74.46;94884.00;1766183;80;21086;-56
2021/04/25 01:27:45;;;;;;;22.20;14.13;;;;;;;1.56;74.25;94879.55;1765638;81;21070;-55
2021/04/25 01:30:19;;;;;;;26.87;17.02;;;;;;;1.55;74.39;94864.44;1766171;81;21082;-55
2021/04/25 01:32:47;;;;;;;35.70;18.80;;;;;;;1.59;74.41;94863.06;1766226;81;22798;-56
2021/04/25 01:35:22;;;;;;;38.98;22.60;;;;;;;1.62;74.38;94861.72;1766096;81;21085;-55
2021/04/25 01:37:51;;;;;;;43.50;23.42;;;;;;;1.68;74.36;94854.74;1766153;81;21142;-57
2021/04/25 01:40:20;;;;;;;38.10;20.80;;;;;;;1.61;74.05;94846.62;1766142;81;21563;-58
2021/04/25 01:42:49;;;;;;;34.00;21.27;;;;;;;1.57;74.14;94849.92;1766156;81;21150;-56
2021/04/25 01:45:17;;;;;;;33.63;19.37;;;;;;;1.57;74.13;94838.28;1766184;81;21153;-56
2021/04/25 01:47:48;;;;;;;33.55;20.62;;;;;;;1.57;74.15;94837.72;1766106;81;21083;-56
2021/04/25 01:50:17;;;;;;;42.38;21.33;;;;;;;1.62;74.05;94841.39;1765859;81;21085;-55
2021/04/25 01:52:45;;;;;;;33.95;21.05;;;;;;;1.61;73.92;94837.13;1766184;81;21046;-56
2021/04/25 01:55:14;;;;;;;26.90;18.37;;;;;;;1.60;74.08;94833.44;1766134;81;21487;-56
2021/04/25 01:57:42;;;;;;;28.70;18.12;;;;;;;1.59;73.89;94836.75;1766239;81;22198;-56
2021/04/25 02:00:14;;;;;;;25.95;17.02;;;;;;;1.53;73.65;94832.86;1766213;81;21565;-55
2021/04/25 02:02:44;;;;;;;25.88;16.93;;;;;;;1.50;73.60;94835.59;1766161;81;21578;-55
2021/04/25 02:05:13;;;;;;;24.60;17.30;;;;;;;1.48;73.78;94838.67;1765640;81;21170;-56
2021/04/25 02:07:41;;;;;;;22.40;17.52;;;;;;;1.50;73.72;94831.52;1766186;81;21563;-56
2021/04/25 02:10:12;;;;;;;31.55;18.92;;;;;;;1.53;73.94;94830.14;1766117;81;21277;-57
2021/04/25 02:12:40;;;;;;;30.32;20.48;;;;;;;1.57;73.81;94825.52;1766109;81;21122;-55
2021/04/25 02:15:11;;;;;;;46.98;24.25;;;;;;;1.51;73.78;94824.94;1766143;81;21185;-56
2021/04/25 02:17:41;;;;;;;45.30;24.55;;;;;;;1.45;74.12;94825.11;1766229;81;21214;-56
2021/04/25 02:20:11;;;;;;;45.20;24.12;;;;;;;1.44;74.46;94820.85;1766175;81;21181;-56
2021/04/25 02:22:39;;;;;;;36.75;22.95;;;;;;;1.41;74.52;94819.71;1766242;81;22192;-55
2021/04/25 02:25:09;;;;;;;41.30;22.25;;;;;;;1.41;74.51;94814.86;1766121;81;21102;-56
2021/04/25 02:27:36;;;;;;;32.28;21.17;;;;;;;1.40;74.50;94815.45;1766162;81;21102;-55
2021/04/25 02:30:10;;;;;;;34.70;20.12;;;;;;;1.38;74.27;94817.78;1766116;81;21066;-56
2021/04/25 02:32:37;;;;;;;;;;;;;;;1.35;74.31;94818.53;1768810;81;21082;-54
2021/04/25 02:35:07;;;;;;;30.68;19.92;;;;;;;1.40;74.52;94806.53;1766095;81;21201;-55
2021/04/25 02:37:36;;;;;;;31.00;20.08;;;;;;;1.42;74.06;94803.64;1766090;81;21094;-57
2021/04/25 02:40:07;;;;;;;34.83;21.02;;;;;;;1.35;74.02;94800.91;1766163;81;21066;-55
2021/04/25 02:42:37;;;;;;;34.27;21.20;;;;;;;1.32;74.20;94807.11;1766234;81;21090;-55
2021/04/25 02:45:06;;;;;;;43.73;24.67;;;;;;;1.35;74.29;94807.69;1766235;80;21066;-56
2021/04/25 02:47:34;;;;;;;45.28;23.20;;;;;;;1.36;74.12;94808.48;1766100;81;21271;-56
2021/04/25 02:50:04;;;;;;;68.45;29.95;;;;;;;1.30;74.17;94804.02;1766034;81;21510;-55
2021/04/25 02:52:31;;;;;;;75.72;32.40;;;;;;;1.23;74.23;94806.73;1766139;81;21150;-55
2021/04/25 02:54:59;;;;;;;50.45;26.07;;;;;;;1.17;74.56;94811.56;1762875;80;21135;-56
2021/04/25 02:57:27;;;;;;;47.88;24.80;;;;;;;1.23;74.89;94808.66;1758048;81;21071;-56
2021/04/25 02:59:55;;;;;;;44.25;23.30;;;;;;;1.30;74.65;94799.95;1757960;81;21374;-56
2021/04/25 03:02:22;;;;;;;44.48;24.37;;;;;;;1.30;74.54;94793.18;1757951;81;21086;-56
2021/04/25 03:04:50;;;;;;;34.40;20.57;;;;;;;1.23;74.72;94791.05;1757969;81;21109;-57
2021/04/25 03:07:20;;;;;;;28.32;17.82;;;;;;;1.15;74.91;94792.21;1758091;81;21145;-56
2021/04/25 03:09:49;;;;;;;46.25;24.10;;;;;;;1.11;75.19;94793.55;1758012;81;21150;-56
2021/04/25 03:12:17;;;;;;;41.95;22.73;;;;;;;1.13;75.36;94791.23;1758001;81;21163;-57
2021/04/25 03:14:46;;;;;;;44.35;24.52;;;;;;;1.20;75.70;94792.61;1757907;81;21126;-56
2021/04/25 03:17:14;;;;;;;54.08;27.20;;;;;;;1.25;75.63;94782.73;1758011;81;21067;-56
2021/04/25 03:19:42;;;;;;;62.35;33.02;;;;;;;1.34;75.91;94780.39;1758008;81;21543;-56
2021/04/25 03:22:10;;;;;;;77.55;36.45;;;;;;;1.46;75.73;94781.38;1758014;81;21134;-56
2021/04/25 03:24:38;;;;;;;73.62;40.23;;;;;;;1.56;75.53;94775.75;1758018;81;21214;-57
2021/04/25 03:27:06;;;;;;;64.72;38.73;;;;;;;1.68;75.20;94774.76;1757890;81;21082;-55
2021/04/25 03:29:34;;;;;;;57.08;32.70;;;;;;;1.77;75.05;94775.14;1757976;81;20986;-56
2021/04/25 03:32:04;;;;;;;60.00;32.67;;;;;;;1.83;74.95;94789.84;1757940;81;21924;-57
2021/04/25 03:34:33;;;;;;;54.00;30.65;;;;;;;1.92;75.02;94782.85;1758003;81;21146;-56
2021/04/25 03:37:01;;;;;;;46.13;26.40;;;;;;;2.03;74.61;94777.40;1757972;81;21905;-56
2021/04/25 03:39:29;;;;;;;51.42;29.37;;;;;;;2.07;74.24;94787.08;1757899;81;21170;-57
2021/04/25 03:41:57;;;;;;;49.25;28.75;;;;;;;1.98;73.87;94783.99;1757975;81;21082;-55
2021/04/25 03:44:25;;;;;;;48.35;27.55;;;;;;;1.83;73.88;94784.42;1758017;81;21087;-56
2021/04/25 03:46:53;;;;;;;47.50;24.92;;;;;;;1.71;74.14;94783.46;1757996;81;21079;-55
2021/04/25 03:49:21;;;;;;;51.70;29.35;;;;;;;1.70;74.33;94778.45;1758056;81;21555;-56
2021/04/25 03:51:50;;;;;;;51.18;27.65;;;;;;;1.63;74.53;94771.66;1757901;81;21127;-55
2021/04/25 03:54:18;;;;;;;48.78;28.95;;;;;;;1.62;74.75;94764.13;1758021;81;22522;-55
2021/04/25 03:56:46;;;;;;;43.75;24.25;;;;;;;1.66;75.35;94762.78;1757894;80;21074;-55
2021/04/25 03:59:14;;;;;;;55.38;27.87;;;;;;;1.81;75.30;94769.12;1758007;81;21087;-56
2021/04/25 04:01:42;;;;;;;151.30;77.72;;;;;;;1.89;74.99;94767.36;1757995;81;21929;-56
2021/04/25 04:04:10;;;;;;;75.30;41.25;;;;;;;1.93;75.13;94771.44;1757887;81;21131;-56
2021/04/25 04:06:38;;;;;;;54.05;28.87;;;;;;;1.99;75.24;94768.50;1759578;80;21646;-56
2021/04/25 04:09:06;;;;;;;45.08;26.80;;;;;;;2.05;74.80;94769.64;1763337;81;21094;-55
2021/04/25 04:11:34;;;;;;;55.05;30.97;;;;;;;2.06;74.52;94771.19;1763423;81;21054;-56
2021/04/25 04:14:03;;;;;;;57.67;35.78;;;;;;;2.00;74.53;94768.09;1763535;81;21276;-57
2021/04/25 04:16:31;;;;;;;63.58;37.35;;;;;;;2.01;74.63;94764.81;1733642;82;21163;-56
2021/04/25 04:18:59;;;;;;;60.95;35.43;;;;;;;2.03;74.62;94763.83;1762918;81;21173;-56
2021/04/25 04:21:27;;;;;;;52.38;31.48;;;;;;;2.05;74.53;94766.92;1733583;82;21147;-56
2021/04/25 04:23:55;;;;;;;61.02;36.23;;;;;;;2.03;74.45;94760.55;1763043;81;21054;-55
2021/04/25 04:26:23;;;;;;;71.92;36.55;;;;;;;2.04;74.78;94761.31;1733988;82;22140;-56
2021/04/25 04:28:51;;;;;;;51.85;33.02;;;;;;;2.16;75.03;94755.47;1762991;81;21119;-56
2021/04/25 04:31:19;;;;;;;52.50;32.40;;;;;;;2.36;74.98;94754.59;1733754;82;21608;-57
2021/04/25 04:33:47;;;;;;;59.08;33.55;;;;;;;2.52;74.47;94747.36;1763045;81;21083;-56
2021/04/25 04:36:17;;;;;;;56.70;30.40;;;;;;;2.63;74.38;94751.56;1733858;82;21071;-56
2021/04/25 04:38:45;;;;;;;63.35;35.28;;;;;;;2.76;73.82;94755.38;1763084;81;21217;-56
2021/04/25 04:41:13;;;;;;;57.03;34.03;;;;;;;2.77;73.35;94750.70;1733727;82;21122;-56
2021/04/25 04:43:41;;;;;;;53.23;33.10;;;;;;;2.75;73.62;94753.05;1763207;81;21106;-57
2021/04/25 04:46:09;;;;;;;46.50;28.92;;;;;;;2.87;73.48;94758.79;1763192;81;21125;-56
2021/04/25 04:48:37;;;;;;;55.08;29.72;;;;;;;2.94;72.95;94763.41;1734043;82;21154;-56
2021/04/25 04:51:05;;;;;;;47.78;28.02;;;;;;;2.91;72.74;94754.09;1763187;81;21365;-56
2021/04/25 04:53:33;;;;;;;44.75;28.32;;;;;;;2.91;72.73;94752.74;1763241;80;21107;-56
2021/04/25 04:56:01;;;;;;;55.25;32.42;;;;;;;2.96;72.87;94748.84;1750533;81;21558;-56
2021/04/25 04:58:29;;;;;;;49.08;29.85;;;;;;;3.05;72.95;94749.94;1760241;81;21162;-56
2021/04/25 05:00:57;;;;;;;40.80;25.27;;;;;;;3.21;72.90;94752.92;1760255;81;21536;-55
2021/04/25 05:03:24;;;;;;;38.78;25.90;;;;;;;3.31;72.75;94743.94;1765346;81;23463;-55
2021/04/25 05:05:53;;;;;;;54.38;28.83;;;;;;;3.40;72.75;94742.11;1774659;80;21086;-56
2021/04/25 05:08:20;;;;;;;50.25;31.40;;;;;;;3.51;72.62;94738.12;1774637;79;21125;-56
2021/04/25 05:10:50;;;;;;;51.25;29.72;;;;;;;3.60;72.51;94741.92;1765374;81;21189;-56
2021/04/25 05:13:18;;;;;;;46.10;27.55;;;;;;;3.71;72.07;94749.37;1760207;81;21165;-56
2021/04/25 05:15:46;;;;;;;44.77;26.33;;;;;;;3.74;71.47;94739.08;1793178;80;21374;-56
2021/04/25 05:18:14;;;;;;;43.55;24.60;;;;;;;3.73;70.99;94747.02;1758321;81;21082;-56
2021/04/25 05:20:43;;;;;;;37.73;23.30;;;;;;;3.73;70.85;94742.95;1765343;81;21058;-55
2021/04/25 05:23:11;;;;;;;47.55;25.90;;;;;;;3.79;70.79;94737.27;1774636;80;21118;-57
2021/04/25 05:25:39;;;;;;;39.50;24.23;;;;;;;3.87;70.79;94736.61;1774669;80;21572;-56
2021/04/25 05:28:07;;;;;;;43.85;24.50;;;;;;;4.03;70.53;94723.98;1765371;81;21322;-55
2021/04/25 05:30:35;;;;;;;62.27;28.32;;;;;;;4.18;70.03;94728.09;1774621;80;21511;-57
2021/04/25 05:33:04;;;;;;;49.10;24.60;;;;;;;4.21;69.54;94730.00;1774626;80;21054;-55
2021/04/25 05:35:32;;;;;;;43.30;22.98;;;;;;;4.20;69.46;94728.45;1765333;81;21165;-57
2021/04/25 05:37:59;;;;;;;42.13;25.23;;;;;;;4.28;69.34;94728.55;1774636;80;21166;-57
2021/04/25 05:40:27;;;;;;;49.77;27.32;;;;;;;4.32;69.22;94723.06;1774474;80;21450;-58
2021/04/25 05:42:55;;;;;;;39.90;23.65;;;;;;;4.29;69.14;94719.22;1765273;81;22017;-57
2021/04/25 05:45:23;;;;;;;40.33;24.85;;;;;;;4.31;69.15;94720.16;1760206;81;21050;-57
2021/04/25 05:47:56;;;;;;;31.25;20.35;;;;;;;4.33;68.82;94715.86;1793162;80;21119;-57
2021/04/25 05:50:26;;;;;;;;;;;;;;;4.42;68.38;94720.81;1760928;81;21082;-56
2021/04/25 05:52:54;;;;;;;37.38;22.35;;;;;;;4.45;67.75;94718.02;1793124;80;21194;-57
2021/04/25 05:55:22;;;;;;;22.95;14.45;;;;;;;4.42;67.25;94718.84;1792807;80;21090;-57
2021/04/25 05:57:50;;;;;;;22.22;13.28;;;;;;;4.38;66.86;94708.59;1756456;81;21148;-56
2021/04/25 06:00:24;;;;;;;30.88;14.87;;;;;;;4.43;66.68;94704.05;1756517;81;21549;-56
2021/04/25 06:02:53;;;;;;;27.62;15.58;;;;;;;4.53;66.34;94705.09;1756482;81;21141;-56
2021/04/25 06:05:22;;;;;;;18.35;13.58;;;;;;;4.57;66.31;94705.84;1756413;81;21374;-56
2021/04/25 06:07:50;;;;;;;18.77;13.05;;;;;;;4.60;66.15;94700.32;1756450;81;21605;-55
2021/04/25 06:10:19;;;;;;;17.87;12.68;;;;;;;4.64;65.88;94699.67;1756401;81;21176;-56
2021/04/25 06:12:49;;;;;;;22.35;15.32;;;;;;;4.69;65.81;94700.60;1756531;81;21108;-58
2021/04/25 06:15:20;;;;;;;25.15;15.43;;;;;;;4.79;66.23;94694.22;1756482;81;21077;-58
2021/04/25 06:17:49;;;;;;;21.42;15.25;;;;;;;4.96;66.53;94691.82;1756418;81;21188;-56
2021/04/25 06:20:18;;;;;;;25.52;16.48;;;;;;;5.08;66.60;94691.26;1756412;81;21201;-56
2021/04/25 06:22:46;;;;;;;25.10;14.65;;;;;;;5.25;66.69;94687.48;1756433;81;21093;-58
2021/04/25 06:25:15;;;;;;;22.70;15.20;;;;;;;5.51;66.74;94688.00;1756399;81;21068;-57
2021/04/25 06:27:43;;;;;;;20.08;12.65;;;;;;;5.83;66.19;94690.98;1756512;81;21569;-58
2021/04/25 06:30:14;;;;;;;17.70;12.13;;;;;;;6.16;64.63;94685.25;1756405;81;21397;-57
2021/04/25 06:32:43;;;;;;;23.85;14.70;;;;;;;6.36;63.12;94690.73;1756337;81;21243;-56
2021/04/25 06:35:13;;;;;;;19.80;13.08;;;;;;;6.44;61.99;94688.02;1756379;81;21206;-55
2021/04/25 06:37:42;;;;;;;27.60;13.85;;;;;;;6.52;61.81;94682.59;1756495;81;21160;-57
2021/04/25 06:40:12;;;;;;;29.27;15.10;;;;;;;6.57;61.28;94682.87;1756506;81;21150;-56
2021/04/25 06:42:39;;;;;;;47.85;26.68;;;;;;;6.63;60.99;94684.48;1756495;81;21193;-58
2021/04/25 06:45:19;;;;;;;34.40;20.75;;;;;;;6.77;60.79;94689.66;1756400;81;21671;-58
2021/04/25 06:47:47;;;;;;;28.55;18.52;;;;;;;6.81;60.33;94683.50;1756442;81;21077;-58
2021/04/25 06:50:17;;;;;;;28.15;18.10;;;;;;;6.83;59.80;94680.53;1756369;81;21068;-58
2021/04/25 06:52:46;;;;;;;38.63;25.12;;;;;;;6.87;59.60;94672.26;1756486;81;21097;-58
2021/04/25 06:55:19;;;;;;;43.35;29.00;;;;;;;6.97;59.25;94673.38;1756381;81;21212;-58
2021/04/25 06:57:49;;;;;;;35.20;21.73;;;;;;;7.06;59.17;94670.06;1768754;80;21105;-56
2021/04/25 07:00:18;;;;;;;21.00;12.53;;;;;;;7.17;58.49;94673.47;1755947;81;21102;-56
2021/04/25 07:02:46;;;;;;;13.98;10.20;;;;;;;7.22;58.15;94674.93;1758304;81;21067;-57
2021/04/25 07:05:14;;;;;;;14.40;10.50;;;;;;;7.17;57.23;94672.72;1755905;81;21071;-57
2021/04/25 07:07:42;;;;;;;16.40;11.43;;;;;;;7.15;57.13;94673.74;1758253;81;22494;-56
2021/04/25 07:10:11;;;;;;;13.38;11.18;;;;;;;7.14;57.47;94666.12;1758144;81;21190;-56
2021/04/25 07:12:39;;;;;;;12.55;9.60;;;;;;;7.24;57.93;94661.00;1755807;81;21198;-57
2021/04/25 07:15:09;;;;;;;11.57;9.08;;;;;;;7.42;57.44;94664.08;1758264;81;21075;-59
2021/04/25 07:17:36;;;;;;;13.35;8.05;;;;;;;7.64;55.79;94658.23;1755898;81;21062;-57
2021/04/25 07:20:07;;;;;;;23.32;9.80;;;;;;;7.78;55.89;94645.55;1758270;81;21279;-56
2021/04/25 07:22:36;;;;;;;14.55;9.80;;;;;;;7.95;56.26;94646.27;1755690;81;21500;-56
2021/04/25 07:25:07;;;;;;;16.82;10.90;;;;;;;8.14;55.86;94645.35;1757636;81;21063;-58
2021/04/25 07:27:36;;;;;;;14.33;10.38;;;;;;;8.26;54.78;94637.20;1755806;81;21075;-58
2021/04/25 07:30:07;;;;;;;16.15;11.25;;;;;;;8.35;53.83;94630.48;1758236;81;21479;-58
2021/04/25 07:32:36;;;;;;;13.98;10.53;;;;;;;8.46;54.01;94633.67;1755583;81;22064;-58
2021/04/25 07:35:06;;;;;;;19.92;9.48;;;;;;;8.66;53.98;94630.14;1757866;81;21453;-55
2021/04/25 07:37:35;;;;;;;13.50;8.60;;;;;;;8.91;53.91;94634.28;1755791;81;21508;-58
2021/04/25 07:40:05;;;;;;;11.78;7.80;;;;;;;9.19;52.59;94615.54;1758083;81;21146;-58
2021/04/25 07:42:34;;;;;;;15.78;8.73;;;;;;;9.38;51.93;94615.89;1755771;81;21142;-57
2021/04/25 07:45:05;;;;;;;11.35;7.15;;;;;;;9.61;51.68;94620.41;1758210;81;21463;-57
2021/04/25 07:47:33;;;;;;;13.28;7.20;;;;;;;9.86;50.51;94618.19;1755691;81;21090;-57
2021/04/25 07:50:01;;;;;;;11.88;7.60;;;;;;;10.00;50.33;94613.58;1758222;81;21102;-57
2021/04/25 07:52:29;;;;;;;13.93;8.65;;;;;;;10.16;49.26;94613.44;1755762;81;21182;-59
2021/04/25 07:54:57;;;;;;;14.50;7.90;;;;;;;10.22;49.31;94606.92;1758244;81;20996;-57
2021/04/25 07:57:25;;;;;;;11.80;7.72;;;;;;;10.30;48.77;94605.44;1755644;81;23490;-58
2021/04/25 07:59:53;;;;;;;12.85;8.60;;;;;;;10.49;47.67;94604.95;1758228;81;21146;-57
2021/04/25 08:02:22;;;;;;;11.73;7.83;;;;;;;10.61;47.91;94595.23;1755759;81;21614;-59
2021/04/25 08:04:50;;;;;;;21.65;7.90;;;;;;;10.83;46.87;94593.20;1758266;81;21158;-56
2021/04/25 08:07:18;;;;;;;13.55;8.50;;;;;;;10.96;46.46;94594.63;1755929;81;21449;-57
2021/04/25 08:09:46;;;;;;;17.07;8.35;;;;;;;11.11;46.02;94584.59;1758163;81;21375;-57
2021/04/25 08:12:14;;;;;;;13.88;8.28;;;;;;;11.36;46.34;94578.84;1755799;81;21504;-58
2021/04/25 08:14:44;;;;;;;18.50;8.90;;;;;;;11.65;45.52;94583.97;1758140;81;21247;-56
2021/04/25 08:17:12;;;;;;;12.25;8.10;;;;;;;11.84;44.80;94580.78;1755929;81;21130;-56
2021/04/25 08:19:40;;;;;;;12.68;8.53;;;;;;;11.96;43.53;94583.23;1758396;81;21110;-56
2021/04/25 08:22:08;;;;;;;16.90;6.85;;;;;;;12.03;42.19;94573.27;1755970;81;21383;-57
2021/04/25 08:24:36;;;;;;;18.02;7.25;;;;;;;12.22;41.30;94571.42;1758381;81;21492;-56
2021/04/25 08:27:05;;;;;;;16.67;6.55;;;;;;;12.43;40.63;94565.58;1755892;81;21079;-57
2021/04/25 08:29:33;;;;;;;24.92;5.55;;;;;;;12.60;40.48;94565.53;1758380;81;21119;-59
2021/04/25 08:32:01;;;;;;;22.13;6.33;;;;;;;12.66;37.96;94565.65;1755906;81;21119;-59
2021/04/25 08:34:30;;;;;;;14.35;5.22;;;;;;;12.62;37.92;94563.67;1758338;81;21204;-60
2021/04/25 08:36:57;;;;;;;13.60;4.80;;;;;;;12.64;38.13;94561.22;1755878;81;21096;-59
2021/04/25 08:39:26;;;;;;;59.77;6.65;;;;;;;12.69;37.15;94565.50;1735045;81;21070;-60
2021/04/25 08:41:54;;;;;;;45.83;8.08;;;;;;;12.71;38.05;94560.91;1755945;81;21170;-59
2021/04/25 08:44:23;;;;;;;10.90;5.12;;;;;;;12.75;38.16;94558.73;1758377;81;21126;-57
2021/04/25 08:46:52;;;;;;;42.15;6.15;;;;;;;12.84;37.64;94547.05;1732774;81;21205;-57
2021/04/25 08:49:25;;;;;;;15.20;4.83;;;;;;;12.90;36.45;94552.70;1758325;81;21141;-57
2021/04/25 08:51:54;;;;;;;12.80;5.03;;;;;;;12.80;36.94;94549.22;1755917;81;21079;-56
2021/04/25 08:54:24;;;;;;;22.13;5.08;;;;;;;12.78;36.67;94545.38;1758350;81;21190;-57
2021/04/25 08:56:52;;;;;;;110.32;10.80;;;;;;;12.86;37.65;94535.55;1758507;81;21210;-60
2021/04/25 08:59:20;;;;;;;18.07;5.28;;;;;;;13.04;36.01;94543.78;1760305;81;22238;-57
2021/04/25 09:01:49;;;;;;;11.15;5.17;;;;;;;13.11;37.07;94538.66;1793105;80;21206;-58
2021/04/25 09:04:17;;;;;;;13.62;4.70;;;;;;;13.16;36.31;94537.27;1785629;80;21097;-57
2021/04/25 09:07:06;;;;;;;12.43;4.70;;;;;;;13.22;36.07;94538.14;1766125;81;21071;-57
2021/04/25 09:09:47;;;;;;;15.00;4.78;;;;;;;13.29;35.09;94539.94;1766202;81;21058;-57
2021/04/25 09:12:37;;;;;;;16.70;5.35;;;;;;;13.27;36.07;94537.52;1766260;81;22322;-58
2021/04/25 09:15:18;;;;;;;23.52;5.40;;;;;;;13.36;36.30;94520.87;1766091;81;21077;-58
2021/04/25 09:17:56;;;;;;;10.05;5.05;;;;;;;13.46;35.79;94511.30;1766265;81;21038;-57
2021/04/25 09:20:45;;;;;;;10.10;4.15;;;;;;;13.49;35.26;94510.36;1766182;81;21070;-56
2021/04/25 09:23:26;;;;;;;13.85;4.22;;;;;;;13.56;35.55;94509.39;1766152;81;21154;-58
2021/04/25 09:26:04;;;;;;;10.40;4.85;;;;;;;13.72;35.44;94506.80;1766185;81;21368;-56
2021/04/25 09:28:33;;;;;;;13.43;4.47;;;;;;;13.85;34.84;94503.92;1766162;81;21149;-57
2021/04/25 09:31:06;;;;;;;7.30;4.25;;;;;;;13.92;34.95;94511.87;1766080;81;21165;-57
2021/04/25 09:33:57;;;;;;;11.20;4.87;;;;;;;14.03;33.90;94496.09;1766101;81;21216;-59
2021/04/25 09:36:31;;;;;;;10.63;4.30;;;;;;;14.12;34.20;94500.92;1766353;81;21083;-57
2021/04/25 09:39:12;;;;;;;22.42;5.25;;;;;;;14.07;33.63;94500.22;1766281;81;21973;-57
2021/04/25 09:41:40;;;;;;;15.58;5.50;;;;;;;13.86;33.85;94478.43;1766134;81;21590;-59
2021/04/25 09:44:33;;;;;;;11.55;4.20;;;;;;;13.68;34.06;94482.13;1766035;81;21154;-57
2021/04/25 09:47:03;;;;;;;7.45;4.17;;;;;;;13.66;33.86;94465.85;1766126;81;21138;-59
2021/04/25 09:49:48;;;;;;;7.67;4.22;;;;;;;13.69;33.17;94463.52;1766183;81;21102;-57
2021/04/25 09:52:34;;;;;;;8.25;4.08;;;;;;;13.72;33.90;94459.80;1766279;81;21205;-58
2021/04/25 09:55:27;;;;;;;7.92;4.28;;;;;;;13.94;33.51;94458.22;1766138;81;21185;-58
2021/04/25 09:57:56;;;;;;;;;;;;;;;14.20;33.17;94458.47;1761762;81;21051;-57
2021/04/25 10:00:40;;;;;;;10.28;5.08;;;;;;;14.55;32.70;94454.52;1754020;81;20231;-57
2021/04/25 10:03:11;;;;;;;10.03;5.50;;;;;;;14.58;31.46;94449.40;1753979;81;21115;-58
2021/04/25 10:06:01;;;;;;;11.33;4.37;;;;;;;14.86;31.53;94451.38;1754146;81;21356;-57
2021/04/25 10:08:37;;;;;;;7.37;4.92;;;;;;;15.14;30.50;94441.44;1734624;81;21051;-57
2021/04/25 10:11:07;;;;;;;9.18;4.87;;;;;;;14.94;30.56;94438.64;1753872;81;21090;-57
2021/04/25 10:13:39;;;;;;;22.93;4.67;;;;;;;14.96;31.00;94443.07;1753997;81;21567;-56
2021/04/25 10:16:06;;;;;;;14.75;4.55;;;;;;;15.18;31.17;94431.54;1753989;81;21060;-57
2021/04/25 10:18:35;;;;;;;10.20;4.33;;;;;;;15.57;30.97;94428.02;1758269;81;21394;-57
2021/04/25 10:21:04;;;;;;;6.22;3.92;;;;;;;16.05;29.95;94422.11;1755800;81;21110;-57
2021/04/25 10:23:33;;;;;;;8.45;4.05;;;;;;;16.39;29.08;94419.81;1758250;81;21159;-58
2021/04/25 10:26:03;;;;;;;16.97;4.67;;;;;;;16.74;28.89;94425.25;1755740;81;21139;-59
2021/04/25 10:28:37;;;;;;;19.77;7.05;;;;;;;16.93;28.53;94419.45;1758097;81;21126;-57
2021/04/25 10:31:16;;;;;;;9.15;4.33;;;;;;;16.95;27.68;94418.97;1755775;81;21376;-58
2021/04/25 10:34:02;;;;;;;10.58;4.45;;;;;;;16.68;27.79;94423.69;1758121;81;21087;-57
2021/04/25 10:36:51;;;;;;;9.58;4.20;;;;;;;16.90;27.52;94418.31;1755794;81;21123;-57
2021/04/25 10:39:52;;;;;;;14.30;4.50;;;;;;;17.30;27.92;94422.20;1758201;80;21173;-57
2021/04/25 10:42:28;;;;;;;12.13;4.30;;;;;;;17.30;27.26;94420.81;1755446;81;21098;-58
2021/04/25 10:45:05;;;;;;;9.38;5.83;;;;;;;16.96;27.62;94414.31;1757633;81;21611;-58
2021/04/25 10:47:40;;;;;;;6.65;4.35;;;;;;;16.67;27.74;94423.55;1755493;81;21644;-57
2021/04/25 10:50:23;;;;;;;10.25;4.40;;;;;;;16.43;27.53;94420.34;1758173;81;21153;-57
2021/04/25 10:52:51;;;;;;;20.10;9.03;;;;;;;16.11;28.42;94422.17;1755652;81;28355;-57
2021/04/25 10:55:32;;;;;;;19.07;6.30;;;;;;;15.81;27.96;94417.46;1757886;80;21208;-57
2021/04/25 10:58:11;;;;;;;14.23;5.20;;;;;;;15.69;28.28;94421.35;1759929;81;21209;-61
2021/04/25 11:00:40;;;;;;;11.22;5.15;;;;;;;15.60;28.81;94413.20;1760013;80;21876;-58
2021/04/25 11:03:12;;;;;;;11.53;8.53;;;;;;;15.55;26.99;94420.81;1792985;80;21185;-58
2021/04/25 11:05:43;;;;;;;8.75;4.85;;;;;;;15.65;27.19;94421.42;1785499;80;21168;-57
2021/04/25 11:08:32;;;;;;;9.65;4.72;;;;;;;16.00;26.13;94425.60;1766100;81;21107;-61
2021/04/25 11:11:11;;;;;;;9.35;4.67;;;;;;;16.26;26.24;94416.63;1766089;81;22412;-59
2021/04/25 11:13:46;;;;;;;6.83;4.95;;;;;;;16.36;25.54;94415.25;1765997;81;21575;-58
2021/04/25 11:16:26;;;;;;;5.37;4.00;;;;;;;16.30;26.28;94413.00;1766200;81;21089;-59
2021/04/25 11:19:02;;;;;;;9.68;4.97;;;;;;;16.30;25.63;94411.61;1766047;81;21077;-57
2021/04/25 11:24:42;;;;;;;14.80;5.45;;;;;;;16.24;26.35;94401.09;1877270;75;22665;-58
2021/04/25 11:27:16;;;;;;;12.53;4.72;;;;;;;16.11;27.64;94409.05;1785982;79;21081;-57
2021/04/25 11:29:52;;;;;;;10.63;5.75;;;;;;;16.16;27.10;94408.97;1786596;79;22037;-58
2021/04/25 11:32:27;;;;;;;10.40;4.90;;;;;;;16.16;27.79;94400.03;1821970;78;21099;-58
2021/04/25 11:34:59;;;;;;;18.80;5.17;;;;;;;16.11;28.19;94396.55;1810019;78;21004;-56
2021/04/25 11:37:28;;;;;;;11.20;4.85;;;;;;;16.23;28.51;94393.25;1811233;78;21189;-58
2021/04/25 11:40:00;;;;;;;16.65;4.58;;;;;;;16.41;28.97;94397.86;1812235;78;21162;-57
2021/04/25 11:42:33;;;;;;;23.52;5.37;;;;;;;16.90;27.97;94389.88;1784444;78;21330;-57
2021/04/25 11:45:04;;;;;;;12.30;4.45;;;;;;;16.94;27.49;94391.05;1774182;80;21120;-58